sensor_id;sensor_type;location;lat;lon;timestamp;P1;durP1;ratioP1;P2;durP2;ratioP2
71806;SDS011;59655;42.590;23.364;2023-07-31T00:01:54;6.95;;;4.32;;
71806;SDS011;59655;42.590;23.364;2023-07-31T00:04:20;9.20;;;4.50;;
71806;SDS011;59655;42.590;23.364;2023-07-31T00:06:45;6.75;;;4.75;;
71806;SDS011;59655;42.590;23.364;2023-07-31T00:09:11;7.07;;;4.38;;
71806;SDS011;59655;42.590;23.364;2023-07-31T00:11:36;7.15;;;4.55;;
71806;SDS011;59655;42.590;23.364;2023-07-31T00:14:02;6.15;;;4.55;;
71806;SDS011;59655;42.590;23.364;2023-07-31T00:16:27;7.40;;;5.00;;
71806;SDS011;59655;42.590;23.364;2023-07-31T00:18:53;8.43;;;4.88;;
71806;SDS011;59655;42.590;23.364;2023-07-31T00:21:18;7.57;;;5.30;;
71806;SDS011;59655;42.590;23.364;2023-07-31T00:23:43;7.88;;;5.18;;
71806;SDS011;59655;42.590;23.364;2023-07-31T00:26:09;8.73;;;5.40;;
71806;SDS011;59655;42.590;23.364;2023-07-31T00:28:34;6.57;;;4.90;;
71806;SDS011;59655;42.590;23.364;2023-07-31T00:31:00;8.18;;;5.28;;
71806;SDS011;59655;42.590;23.364;2023-07-31T00:33:26;7.18;;;5.07;;
71806;SDS011;59655;42.590;23.364;2023-07-31T00:35:52;7.95;;;5.10;;
71806;SDS011;59655;42.590;23.364;2023-07-31T00:38:17;7.43;;;5.35;;
71806;SDS011;59655;42.590;23.364;2023-07-31T00:40:42;6.70;;;4.85;;
71806;SDS011;59655;42.590;23.364;2023-07-31T00:43:08;7.45;;;4.97;;
71806;SDS011;59655;42.590;23.364;2023-07-31T00:45:33;9.65;;;4.93;;
71806;SDS011;59655;42.590;23.364;2023-07-31T00:47:59;7.90;;;5.93;;
71806;SDS011;59655;42.590;23.364;2023-07-31T00:50:24;6.75;;;5.45;;
71806;SDS011;59655;42.590;23.364;2023-07-31T00:52:50;7.50;;;5.65;;
71806;SDS011;59655;42.590;23.364;2023-07-31T00:55:16;10.55;;;6.40;;
71806;SDS011;59655;42.590;23.364;2023-07-31T00:57:42;7.85;;;5.72;;
71806;SDS011;59655;42.590;23.364;2023-07-31T01:00:08;8.25;;;5.43;;
71806;SDS011;59655;42.590;23.364;2023-07-31T01:02:34;8.30;;;5.70;;
71806;SDS011;59655;42.590;23.364;2023-07-31T01:05:00;6.57;;;4.97;;
71806;SDS011;59655;42.590;23.364;2023-07-31T01:07:28;7.45;;;5.00;;
71806;SDS011;59655;42.590;23.364;2023-07-31T01:12:32;6.63;;;4.82;;
71806;SDS011;59655;42.590;23.364;2023-07-31T01:15:02;7.00;;;4.60;;
71806;SDS011;59655;42.590;23.364;2023-07-31T01:17:28;7.75;;;5.50;;
71806;SDS011;59655;42.590;23.364;2023-07-31T01:19:59;12.82;;;7.43;;
71806;SDS011;59655;42.590;23.364;2023-07-31T01:28:06;9.85;;;5.75;;
71806;SDS011;59655;42.590;23.364;2023-07-31T01:30:37;9.07;;;6.10;;
71806;SDS011;59655;42.590;23.364;2023-07-31T01:33:08;8.82;;;5.55;;
71806;SDS011;59655;42.590;23.364;2023-07-31T01:35:35;9.52;;;5.90;;
71806;SDS011;59655;42.590;23.364;2023-07-31T01:38:01;8.48;;;5.75;;
71806;SDS011;59655;42.590;23.364;2023-07-31T01:40:26;7.55;;;5.53;;
71806;SDS011;59655;42.590;23.364;2023-07-31T01:42:52;7.55;;;5.55;;
71806;SDS011;59655;42.590;23.364;2023-07-31T01:45:17;8.57;;;5.90;;
71806;SDS011;59655;42.590;23.364;2023-07-31T01:47:43;7.63;;;5.97;;
71806;SDS011;59655;42.590;23.364;2023-07-31T01:50:08;6.45;;;5.20;;
71806;SDS011;59655;42.590;23.364;2023-07-31T01:52:34;6.53;;;4.95;;
71806;SDS011;59655;42.590;23.364;2023-07-31T01:54:59;7.18;;;5.32;;
71806;SDS011;59655;42.590;23.364;2023-07-31T01:57:25;7.75;;;5.93;;
71806;SDS011;59655;42.590;23.364;2023-07-31T01:59:50;7.72;;;5.32;;
71806;SDS011;59655;42.590;23.364;2023-07-31T02:02:18;7.13;;;5.45;;
71806;SDS011;59655;42.590;23.364;2023-07-31T02:04:43;7.05;;;5.35;;
71806;SDS011;59655;42.590;23.364;2023-07-31T02:07:09;8.75;;;5.35;;
71806;SDS011;59655;42.590;23.364;2023-07-31T02:09:34;6.93;;;5.32;;
71806;SDS011;59655;42.590;23.364;2023-07-31T02:12:00;7.07;;;5.60;;
71806;SDS011;59655;42.590;23.364;2023-07-31T02:14:25;7.00;;;4.97;;
71806;SDS011;59655;42.590;23.364;2023-07-31T02:16:50;6.80;;;4.93;;
71806;SDS011;59655;42.590;23.364;2023-07-31T02:19:16;8.00;;;5.53;;
71806;SDS011;59655;42.590;23.364;2023-07-31T02:21:41;8.43;;;5.72;;
71806;SDS011;59655;42.590;23.364;2023-07-31T02:24:07;6.57;;;5.40;;
71806;SDS011;59655;42.590;23.364;2023-07-31T02:26:32;7.60;;;5.43;;
71806;SDS011;59655;42.590;23.364;2023-07-31T02:28:57;6.70;;;5.15;;
71806;SDS011;59655;42.590;23.364;2023-07-31T02:31:23;7.18;;;5.47;;
71806;SDS011;59655;42.590;23.364;2023-07-31T02:33:48;16.88;;;11.50;;
71806;SDS011;59655;42.590;23.364;2023-07-31T02:36:13;22.77;;;17.13;;
71806;SDS011;59655;42.590;23.364;2023-07-31T02:38:39;26.88;;;20.67;;
71806;SDS011;59655;42.590;23.364;2023-07-31T02:41:05;29.05;;;21.58;;
71806;SDS011;59655;42.590;23.364;2023-07-31T02:43:30;12.73;;;9.75;;
71806;SDS011;59655;42.590;23.364;2023-07-31T02:45:56;10.10;;;6.88;;
71806;SDS011;59655;42.590;23.364;2023-07-31T02:48:21;18.45;;;13.55;;
71806;SDS011;59655;42.590;23.364;2023-07-31T02:50:47;11.40;;;8.75;;
71806;SDS011;59655;42.590;23.364;2023-07-31T02:53:12;11.88;;;7.97;;
71806;SDS011;59655;42.590;23.364;2023-07-31T02:55:38;15.40;;;10.75;;
71806;SDS011;59655;42.590;23.364;2023-07-31T02:58:04;13.35;;;8.90;;
71806;SDS011;59655;42.590;23.364;2023-07-31T03:00:29;14.50;;;9.70;;
71806;SDS011;59655;42.590;23.364;2023-07-31T03:02:54;10.90;;;7.38;;
71806;SDS011;59655;42.590;23.364;2023-07-31T03:05:20;9.15;;;7.15;;
71806;SDS011;59655;42.590;23.364;2023-07-31T03:07:45;16.23;;;12.93;;
71806;SDS011;59655;42.590;23.364;2023-07-31T03:10:11;29.20;;;20.33;;
71806;SDS011;59655;42.590;23.364;2023-07-31T03:12:37;31.77;;;23.98;;
71806;SDS011;59655;42.590;23.364;2023-07-31T03:15:02;32.42;;;24.67;;
71806;SDS011;59655;42.590;23.364;2023-07-31T03:17:28;31.77;;;23.35;;
71806;SDS011;59655;42.590;23.364;2023-07-31T03:19:53;32.90;;;23.70;;
71806;SDS011;59655;42.590;23.364;2023-07-31T03:22:18;33.78;;;23.77;;
71806;SDS011;59655;42.590;23.364;2023-07-31T03:24:44;35.78;;;24.88;;
71806;SDS011;59655;42.590;23.364;2023-07-31T03:27:09;32.20;;;23.42;;
71806;SDS011;59655;42.590;23.364;2023-07-31T03:29:35;36.03;;;25.05;;
71806;SDS011;59655;42.590;23.364;2023-07-31T03:32:00;33.30;;;24.35;;
71806;SDS011;59655;42.590;23.364;2023-07-31T03:34:25;37.72;;;25.35;;
71806;SDS011;59655;42.590;23.364;2023-07-31T03:36:51;35.92;;;23.63;;
71806;SDS011;59655;42.590;23.364;2023-07-31T03:39:16;32.17;;;22.85;;
71806;SDS011;59655;42.590;23.364;2023-07-31T03:41:42;34.15;;;23.63;;
71806;SDS011;59655;42.590;23.364;2023-07-31T03:44:07;33.40;;;24.10;;
71806;SDS011;59655;42.590;23.364;2023-07-31T03:46:33;36.75;;;24.52;;
71806;SDS011;59655;42.590;23.364;2023-07-31T03:48:58;33.35;;;23.58;;
71806;SDS011;59655;42.590;23.364;2023-07-31T03:51:24;33.92;;;23.83;;
71806;SDS011;59655;42.590;23.364;2023-07-31T03:53:49;32.47;;;22.90;;
71806;SDS011;59655;42.590;23.364;2023-07-31T03:56:15;34.00;;;23.75;;
71806;SDS011;59655;42.590;23.364;2023-07-31T03:58:40;32.95;;;23.08;;
71806;SDS011;59655;42.590;23.364;2023-07-31T04:01:06;35.97;;;24.90;;
71806;SDS011;59655;42.590;23.364;2023-07-31T04:03:31;32.88;;;23.08;;
71806;SDS011;59655;42.590;23.364;2023-07-31T04:05:56;33.80;;;22.88;;
71806;SDS011;59655;42.590;23.364;2023-07-31T04:08:22;35.55;;;23.88;;
71806;SDS011;59655;42.590;23.364;2023-07-31T04:10:48;35.05;;;23.65;;
71806;SDS011;59655;42.590;23.364;2023-07-31T04:13:14;34.40;;;23.45;;
71806;SDS011;59655;42.590;23.364;2023-07-31T04:15:39;38.65;;;25.65;;
71806;SDS011;59655;42.590;23.364;2023-07-31T04:18:05;37.72;;;25.88;;
71806;SDS011;59655;42.590;23.364;2023-07-31T04:20:30;35.63;;;22.67;;
71806;SDS011;59655;42.590;23.364;2023-07-31T04:22:56;37.42;;;24.45;;
71806;SDS011;59655;42.590;23.364;2023-07-31T04:25:21;40.67;;;25.33;;
71806;SDS011;59655;42.590;23.364;2023-07-31T04:27:47;39.10;;;24.92;;
71806;SDS011;59655;42.590;23.364;2023-07-31T04:30:12;38.25;;;24.58;;
71806;SDS011;59655;42.590;23.364;2023-07-31T04:32:38;33.67;;;22.98;;
71806;SDS011;59655;42.590;23.364;2023-07-31T04:35:03;30.00;;;21.00;;
71806;SDS011;59655;42.590;23.364;2023-07-31T04:37:29;31.38;;;21.75;;
71806;SDS011;59655;42.590;23.364;2023-07-31T04:39:54;32.08;;;21.98;;
71806;SDS011;59655;42.590;23.364;2023-07-31T04:42:20;35.90;;;22.83;;
71806;SDS011;59655;42.590;23.364;2023-07-31T04:44:45;28.45;;;19.95;;
71806;SDS011;59655;42.590;23.364;2023-07-31T04:47:10;26.13;;;18.42;;
71806;SDS011;59655;42.590;23.364;2023-07-31T04:49:36;25.67;;;18.73;;
71806;SDS011;59655;42.590;23.364;2023-07-31T04:52:01;21.90;;;15.52;;
71806;SDS011;59655;42.590;23.364;2023-07-31T04:54:27;22.17;;;16.27;;
71806;SDS011;59655;42.590;23.364;2023-07-31T04:56:52;20.15;;;15.75;;
71806;SDS011;59655;42.590;23.364;2023-07-31T04:59:18;21.58;;;16.00;;
71806;SDS011;59655;42.590;23.364;2023-07-31T05:01:43;20.00;;;13.77;;
71806;SDS011;59655;42.590;23.364;2023-07-31T05:04:12;19.65;;;13.63;;
71806;SDS011;59655;42.590;23.364;2023-07-31T05:06:39;19.38;;;14.00;;
71806;SDS011;59655;42.590;23.364;2023-07-31T05:09:04;15.73;;;12.20;;
71806;SDS011;59655;42.590;23.364;2023-07-31T05:11:30;16.20;;;12.07;;
71806;SDS011;59655;42.590;23.364;2023-07-31T05:13:55;19.90;;;13.15;;
71806;SDS011;59655;42.590;23.364;2023-07-31T05:16:20;19.63;;;13.13;;
71806;SDS011;59655;42.590;23.364;2023-07-31T05:18:46;17.30;;;13.88;;
71806;SDS011;59655;42.590;23.364;2023-07-31T05:21:11;18.08;;;13.38;;
71806;SDS011;59655;42.590;23.364;2023-07-31T05:23:36;21.00;;;13.43;;
71806;SDS011;59655;42.590;23.364;2023-07-31T05:26:03;18.30;;;13.38;;
71806;SDS011;59655;42.590;23.364;2023-07-31T05:28:29;17.83;;;13.55;;
71806;SDS011;59655;42.590;23.364;2023-07-31T05:30:58;17.40;;;12.85;;
71806;SDS011;59655;42.590;23.364;2023-07-31T05:33:24;18.80;;;12.95;;
71806;SDS011;59655;42.590;23.364;2023-07-31T05:35:50;19.10;;;13.70;;
71806;SDS011;59655;42.590;23.364;2023-07-31T05:38:15;16.08;;;11.82;;
71806;SDS011;59655;42.590;23.364;2023-07-31T05:40:42;13.43;;;10.82;;
71806;SDS011;59655;42.590;23.364;2023-07-31T05:43:08;15.50;;;11.93;;
71806;SDS011;59655;42.590;23.364;2023-07-31T05:45:34;15.77;;;11.75;;
71806;SDS011;59655;42.590;23.364;2023-07-31T05:47:59;15.70;;;11.93;;
71806;SDS011;59655;42.590;23.364;2023-07-31T05:50:25;14.07;;;11.48;;
71806;SDS011;59655;42.590;23.364;2023-07-31T05:52:50;14.98;;;11.60;;
71806;SDS011;59655;42.590;23.364;2023-07-31T05:55:16;12.40;;;10.07;;
71806;SDS011;59655;42.590;23.364;2023-07-31T05:57:42;12.88;;;9.50;;
71806;SDS011;59655;42.590;23.364;2023-07-31T06:00:07;11.40;;;8.73;;
71806;SDS011;59655;42.590;23.364;2023-07-31T06:02:33;11.65;;;9.48;;
71806;SDS011;59655;42.590;23.364;2023-07-31T06:05:01;12.65;;;8.43;;
71806;SDS011;59655;42.590;23.364;2023-07-31T06:07:28;10.60;;;9.05;;
71806;SDS011;59655;42.590;23.364;2023-07-31T06:09:54;11.38;;;8.52;;
71806;SDS011;59655;42.590;23.364;2023-07-31T06:12:20;14.13;;;9.00;;
71806;SDS011;59655;42.590;23.364;2023-07-31T06:14:45;11.90;;;9.00;;
71806;SDS011;59655;42.590;23.364;2023-07-31T06:17:11;11.80;;;8.63;;
71806;SDS011;59655;42.590;23.364;2023-07-31T06:19:36;11.35;;;9.02;;
71806;SDS011;59655;42.590;23.364;2023-07-31T06:22:02;11.15;;;9.13;;
71806;SDS011;59655;42.590;23.364;2023-07-31T06:24:28;11.15;;;7.93;;
71806;SDS011;59655;42.590;23.364;2023-07-31T06:26:53;11.98;;;7.63;;
71806;SDS011;59655;42.590;23.364;2023-07-31T06:29:19;9.73;;;5.90;;
71806;SDS011;59655;42.590;23.364;2023-07-31T06:31:44;9.75;;;6.88;;
71806;SDS011;59655;42.590;23.364;2023-07-31T06:34:09;8.52;;;6.10;;
71806;SDS011;59655;42.590;23.364;2023-07-31T06:36:35;8.88;;;6.30;;
71806;SDS011;59655;42.590;23.364;2023-07-31T06:39:00;9.32;;;7.05;;
71806;SDS011;59655;42.590;23.364;2023-07-31T06:41:26;9.30;;;6.60;;
71806;SDS011;59655;42.590;23.364;2023-07-31T06:43:51;9.38;;;6.32;;
71806;SDS011;59655;42.590;23.364;2023-07-31T06:46:17;8.07;;;5.57;;
71806;SDS011;59655;42.590;23.364;2023-07-31T06:48:42;6.40;;;4.82;;
71806;SDS011;59655;42.590;23.364;2023-07-31T06:51:07;8.57;;;5.10;;
71806;SDS011;59655;42.590;23.364;2023-07-31T06:53:33;7.72;;;4.57;;
71806;SDS011;59655;42.590;23.364;2023-07-31T06:55:58;6.38;;;4.95;;
71806;SDS011;59655;42.590;23.364;2023-07-31T06:58:24;6.80;;;4.45;;
71806;SDS011;59655;42.590;23.364;2023-07-31T07:00:49;5.90;;;4.00;;
71806;SDS011;59655;42.590;23.364;2023-07-31T07:03:17;6.32;;;4.50;;
71806;SDS011;59655;42.590;23.364;2023-07-31T07:08:08;8.53;;;4.90;;
71806;SDS011;59655;42.590;23.364;2023-07-31T07:10:34;6.40;;;4.28;;
71806;SDS011;59655;42.590;23.364;2023-07-31T07:12:59;5.80;;;4.43;;
71806;SDS011;59655;42.590;23.364;2023-07-31T07:15:24;6.28;;;4.10;;
71806;SDS011;59655;42.590;23.364;2023-07-31T07:17:50;6.85;;;4.10;;
71806;SDS011;59655;42.590;23.364;2023-07-31T07:20:15;5.97;;;3.90;;
71806;SDS011;59655;42.590;23.364;2023-07-31T07:22:41;5.60;;;4.28;;
71806;SDS011;59655;42.590;23.364;2023-07-31T07:25:08;6.68;;;3.75;;
71806;SDS011;59655;42.590;23.364;2023-07-31T07:27:33;5.05;;;3.67;;
71806;SDS011;59655;42.590;23.364;2023-07-31T07:29:59;5.18;;;3.80;;
71806;SDS011;59655;42.590;23.364;2023-07-31T07:32:24;6.07;;;3.90;;
71806;SDS011;59655;42.590;23.364;2023-07-31T07:34:50;4.97;;;3.67;;
71806;SDS011;59655;42.590;23.364;2023-07-31T07:37:15;6.18;;;4.05;;
71806;SDS011;59655;42.590;23.364;2023-07-31T07:39:41;5.22;;;3.65;;
71806;SDS011;59655;42.590;23.364;2023-07-31T07:42:07;6.60;;;3.50;;
71806;SDS011;59655;42.590;23.364;2023-07-31T07:44:32;5.28;;;3.60;;
71806;SDS011;59655;42.590;23.364;2023-07-31T07:46:58;5.85;;;3.38;;
71806;SDS011;59655;42.590;23.364;2023-07-31T07:49:23;4.57;;;3.22;;
71806;SDS011;59655;42.590;23.364;2023-07-31T07:51:49;4.25;;;3.05;;
71806;SDS011;59655;42.590;23.364;2023-07-31T07:54:14;4.45;;;3.40;;
71806;SDS011;59655;42.590;23.364;2023-07-31T07:56:41;5.40;;;3.40;;
71806;SDS011;59655;42.590;23.364;2023-07-31T07:59:07;4.88;;;3.00;;
71806;SDS011;59655;42.590;23.364;2023-07-31T08:01:33;4.07;;;3.08;;
71806;SDS011;59655;42.590;23.364;2023-07-31T08:03:58;5.07;;;3.45;;
71806;SDS011;59655;42.590;23.364;2023-07-31T08:06:23;6.18;;;3.45;;
71806;SDS011;59655;42.590;23.364;2023-07-31T08:08:49;6.60;;;3.22;;
71806;SDS011;59655;42.590;23.364;2023-07-31T08:11:15;5.18;;;3.50;;
71806;SDS011;59655;42.590;23.364;2023-07-31T08:13:40;5.18;;;3.33;;
71806;SDS011;59655;42.590;23.364;2023-07-31T08:16:05;6.78;;;3.00;;
71806;SDS011;59655;42.590;23.364;2023-07-31T08:18:31;5.68;;;3.05;;
71806;SDS011;59655;42.590;23.364;2023-07-31T08:21:02;6.22;;;3.08;;
71806;SDS011;59655;42.590;23.364;2023-07-31T08:23:28;5.35;;;2.90;;
71806;SDS011;59655;42.590;23.364;2023-07-31T08:25:53;3.75;;;2.83;;
71806;SDS011;59655;42.590;23.364;2023-07-31T08:28:18;4.93;;;3.08;;
71806;SDS011;59655;42.590;23.364;2023-07-31T08:30:44;4.53;;;3.30;;
71806;SDS011;59655;42.590;23.364;2023-07-31T08:33:10;4.90;;;2.90;;
71806;SDS011;59655;42.590;23.364;2023-07-31T08:35:35;4.30;;;2.92;;
71806;SDS011;59655;42.590;23.364;2023-07-31T08:38:01;5.68;;;3.20;;
71806;SDS011;59655;42.590;23.364;2023-07-31T08:40:27;5.57;;;2.80;;
71806;SDS011;59655;42.590;23.364;2023-07-31T08:42:54;8.25;;;3.65;;
71806;SDS011;59655;42.590;23.364;2023-07-31T08:47:52;5.40;;;3.40;;
71806;SDS011;59655;42.590;23.364;2023-07-31T08:50:18;4.38;;;3.05;;
71806;SDS011;59655;42.590;23.364;2023-07-31T08:52:49;5.28;;;3.03;;
71806;SDS011;59655;42.590;23.364;2023-07-31T08:55:15;5.57;;;3.60;;
71806;SDS011;59655;42.590;23.364;2023-07-31T08:57:42;4.25;;;3.00;;
71806;SDS011;59655;42.590;23.364;2023-07-31T09:00:09;5.13;;;3.30;;
71806;SDS011;59655;42.590;23.364;2023-07-31T09:05:13;5.05;;;3.40;;
71806;SDS011;59655;42.590;23.364;2023-07-31T09:07:39;4.75;;;3.17;;
71806;SDS011;59655;42.590;23.364;2023-07-31T09:10:05;5.50;;;2.90;;
71806;SDS011;59655;42.590;23.364;2023-07-31T09:12:32;5.63;;;2.95;;
71806;SDS011;59655;42.590;23.364;2023-07-31T09:14:57;4.80;;;3.35;;
71806;SDS011;59655;42.590;23.364;2023-07-31T09:17:30;4.45;;;2.85;;
71806;SDS011;59655;42.590;23.364;2023-07-31T09:19:56;4.53;;;3.20;;
71806;SDS011;59655;42.590;23.364;2023-07-31T09:22:34;5.03;;;3.13;;
71806;SDS011;59655;42.590;23.364;2023-07-31T09:30:12;6.50;;;3.15;;
71806;SDS011;59655;42.590;23.364;2023-07-31T09:32:38;4.60;;;3.10;;
71806;SDS011;59655;42.590;23.364;2023-07-31T09:35:19;4.03;;;2.80;;
71806;SDS011;59655;42.590;23.364;2023-07-31T09:37:50;4.45;;;2.78;;
71806;SDS011;59655;42.590;23.364;2023-07-31T09:40:29;5.00;;;3.03;;
71806;SDS011;59655;42.590;23.364;2023-07-31T09:42:58;4.22;;;2.83;;
71806;SDS011;59655;42.590;23.364;2023-07-31T09:45:28;3.80;;;3.00;;
71806;SDS011;59655;42.590;23.364;2023-07-31T09:47:54;4.00;;;2.95;;
71806;SDS011;59655;42.590;23.364;2023-07-31T09:50:21;5.53;;;3.10;;
71806;SDS011;59655;42.590;23.364;2023-07-31T09:52:48;4.15;;;2.92;;
71806;SDS011;59655;42.590;23.364;2023-07-31T09:55:14;5.70;;;3.13;;
71806;SDS011;59655;42.590;23.364;2023-07-31T09:57:40;4.85;;;2.83;;
71806;SDS011;59655;42.590;23.364;2023-07-31T10:00:10;4.10;;;3.13;;
71806;SDS011;59655;42.590;23.364;2023-07-31T10:02:37;4.85;;;3.47;;
71806;SDS011;59655;42.590;23.364;2023-07-31T10:05:04;4.72;;;3.38;;
71806;SDS011;59655;42.590;23.364;2023-07-31T10:07:31;5.65;;;3.38;;
71806;SDS011;59655;42.590;23.364;2023-07-31T10:09:59;4.13;;;3.00;;
71806;SDS011;59655;42.590;23.364;2023-07-31T10:12:28;4.95;;;3.42;;
71806;SDS011;59655;42.590;23.364;2023-07-31T10:14:54;5.55;;;3.25;;
71806;SDS011;59655;42.590;23.364;2023-07-31T10:17:24;5.00;;;3.35;;
71806;SDS011;59655;42.590;23.364;2023-07-31T10:19:49;5.70;;;2.95;;
71806;SDS011;59655;42.590;23.364;2023-07-31T10:22:15;5.43;;;3.00;;
71806;SDS011;59655;42.590;23.364;2023-07-31T10:24:44;4.68;;;3.00;;
71806;SDS011;59655;42.590;23.364;2023-07-31T10:27:10;5.03;;;3.00;;
71806;SDS011;59655;42.590;23.364;2023-07-31T10:29:39;4.55;;;2.85;;
71806;SDS011;59655;42.590;23.364;2023-07-31T10:32:09;5.03;;;3.10;;
71806;SDS011;59655;42.590;23.364;2023-07-31T10:34:36;4.88;;;2.80;;
71806;SDS011;59655;42.590;23.364;2023-07-31T10:45:12;4.82;;;2.95;;
71806;SDS011;59655;42.590;23.364;2023-07-31T10:47:44;4.18;;;2.25;;
71806;SDS011;59655;42.590;23.364;2023-07-31T10:50:20;8.20;;;3.42;;
71806;SDS011;59655;42.590;23.364;2023-07-31T10:57:46;3.50;;;2.25;;
71806;SDS011;59655;42.590;23.364;2023-07-31T11:00:22;3.75;;;2.75;;
71806;SDS011;59655;42.590;23.364;2023-07-31T11:03:05;6.15;;;3.88;;
71806;SDS011;59655;42.590;23.364;2023-07-31T11:08:14;3.80;;;2.42;;
71806;SDS011;59655;42.590;23.364;2023-07-31T11:10:42;5.50;;;2.40;;
71806;SDS011;59655;42.590;23.364;2023-07-31T11:13:08;5.60;;;2.75;;
71806;SDS011;59655;42.590;23.364;2023-07-31T11:15:34;4.65;;;2.58;;
71806;SDS011;59655;42.590;23.364;2023-07-31T11:18:00;6.70;;;2.70;;
71806;SDS011;59655;42.590;23.364;2023-07-31T11:20:38;5.30;;;2.55;;
71806;SDS011;59655;42.590;23.364;2023-07-31T11:23:05;4.18;;;2.67;;
71806;SDS011;59655;42.590;23.364;2023-07-31T11:25:32;4.13;;;2.50;;
71806;SDS011;59655;42.590;23.364;2023-07-31T11:28:04;3.50;;;2.20;;
71806;SDS011;59655;42.590;23.364;2023-07-31T11:30:30;3.92;;;2.60;;
71806;SDS011;59655;42.590;23.364;2023-07-31T11:32:56;5.00;;;2.90;;
71806;SDS011;59655;42.590;23.364;2023-07-31T11:35:21;6.20;;;2.28;;
71806;SDS011;59655;42.590;23.364;2023-07-31T11:37:47;3.67;;;2.30;;
71806;SDS011;59655;42.590;23.364;2023-07-31T11:40:13;5.22;;;2.35;;
71806;SDS011;59655;42.590;23.364;2023-07-31T11:42:40;3.40;;;2.10;;
71806;SDS011;59655;42.590;23.364;2023-07-31T11:45:06;4.13;;;2.22;;
71806;SDS011;59655;42.590;23.364;2023-07-31T11:47:33;3.17;;;2.40;;
71806;SDS011;59655;42.590;23.364;2023-07-31T11:50:05;4.43;;;2.30;;
71806;SDS011;59655;42.590;23.364;2023-07-31T11:52:39;4.35;;;2.58;;
71806;SDS011;59655;42.590;23.364;2023-07-31T11:55:07;3.30;;;2.35;;
71806;SDS011;59655;42.590;23.364;2023-07-31T11:57:35;4.82;;;2.40;;
71806;SDS011;59655;42.590;23.364;2023-07-31T12:00:01;4.70;;;2.60;;
71806;SDS011;59655;42.590;23.364;2023-07-31T12:02:28;3.78;;;2.25;;
71806;SDS011;59655;42.590;23.364;2023-07-31T12:04:53;3.63;;;2.30;;
71806;SDS011;59655;42.590;23.364;2023-07-31T12:07:19;4.00;;;2.85;;
71806;SDS011;59655;42.590;23.364;2023-07-31T12:09:54;3.97;;;2.70;;
71806;SDS011;59655;42.590;23.364;2023-07-31T12:12:21;5.32;;;2.53;;
71806;SDS011;59655;42.590;23.364;2023-07-31T12:14:47;3.88;;;2.90;;
71806;SDS011;59655;42.590;23.364;2023-07-31T12:17:13;6.55;;;3.13;;
71806;SDS011;59655;42.590;23.364;2023-07-31T12:19:39;4.90;;;3.10;;
71806;SDS011;59655;42.590;23.364;2023-07-31T12:22:11;3.90;;;2.88;;
71806;SDS011;59655;42.590;23.364;2023-07-31T12:24:39;4.35;;;3.08;;
71806;SDS011;59655;42.590;23.364;2023-07-31T12:27:14;4.60;;;3.42;;
71806;SDS011;59655;42.590;23.364;2023-07-31T12:29:43;5.22;;;3.35;;
71806;SDS011;59655;42.590;23.364;2023-07-31T12:32:24;6.22;;;3.50;;
71806;SDS011;59655;42.590;23.364;2023-07-31T12:34:50;6.30;;;3.40;;
71806;SDS011;59655;42.590;23.364;2023-07-31T12:37:16;6.40;;;4.47;;
71806;SDS011;59655;42.590;23.364;2023-07-31T12:39:42;6.30;;;3.95;;
71806;SDS011;59655;42.590;23.364;2023-07-31T12:42:07;8.20;;;4.80;;
71806;SDS011;59655;42.590;23.364;2023-07-31T12:44:33;6.93;;;4.53;;
71806;SDS011;59655;42.590;23.364;2023-07-31T12:46:58;5.32;;;4.18;;
71806;SDS011;59655;42.590;23.364;2023-07-31T12:49:24;6.55;;;5.18;;
71806;SDS011;59655;42.590;23.364;2023-07-31T12:51:50;8.10;;;5.25;;
71806;SDS011;59655;42.590;23.364;2023-07-31T12:54:15;9.65;;;6.38;;
71806;SDS011;59655;42.590;23.364;2023-07-31T12:56:41;9.27;;;6.78;;
71806;SDS011;59655;42.590;23.364;2023-07-31T12:59:06;8.82;;;6.80;;
71806;SDS011;59655;42.590;23.364;2023-07-31T13:01:32;7.75;;;6.10;;
71806;SDS011;59655;42.590;23.364;2023-07-31T13:03:57;7.15;;;6.18;;
71806;SDS011;59655;42.590;23.364;2023-07-31T13:06:23;8.43;;;6.65;;
71806;SDS011;59655;42.590;23.364;2023-07-31T13:08:49;7.85;;;6.22;;
71806;SDS011;59655;42.590;23.364;2023-07-31T13:11:14;9.68;;;6.38;;
71806;SDS011;59655;42.590;23.364;2023-07-31T13:13:40;8.73;;;5.55;;
71806;SDS011;59655;42.590;23.364;2023-07-31T13:16:05;7.10;;;6.40;;
71806;SDS011;59655;42.590;23.364;2023-07-31T13:18:31;7.80;;;7.00;;
71806;SDS011;59655;42.590;23.364;2023-07-31T13:20:56;8.73;;;7.47;;
71806;SDS011;59655;42.590;23.364;2023-07-31T13:23:21;7.68;;;6.95;;
71806;SDS011;59655;42.590;23.364;2023-07-31T13:25:47;8.02;;;7.22;;
71806;SDS011;59655;42.590;23.364;2023-07-31T13:28:12;7.50;;;6.70;;
71806;SDS011;59655;42.590;23.364;2023-07-31T13:30:38;8.63;;;7.13;;
71806;SDS011;59655;42.590;23.364;2023-07-31T13:33:03;8.65;;;7.55;;
71806;SDS011;59655;42.590;23.364;2023-07-31T13:35:28;8.02;;;7.32;;
71806;SDS011;59655;42.590;23.364;2023-07-31T13:37:56;10.55;;;7.22;;
71806;SDS011;59655;42.590;23.364;2023-07-31T13:40:21;8.27;;;7.28;;
71806;SDS011;59655;42.590;23.364;2023-07-31T13:42:47;8.10;;;6.50;;
71806;SDS011;59655;42.590;23.364;2023-07-31T13:45:13;7.43;;;6.60;;
71806;SDS011;59655;42.590;23.364;2023-07-31T13:47:38;6.85;;;6.20;;
71806;SDS011;59655;42.590;23.364;2023-07-31T13:50:04;7.30;;;5.97;;
71806;SDS011;59655;42.590;23.364;2023-07-31T13:52:30;7.57;;;6.38;;
71806;SDS011;59655;42.590;23.364;2023-07-31T13:54:55;6.78;;;5.57;;
71806;SDS011;59655;42.590;23.364;2023-07-31T13:57:20;6.40;;;5.38;;
71806;SDS011;59655;42.590;23.364;2023-07-31T13:59:46;6.70;;;5.78;;
71806;SDS011;59655;42.590;23.364;2023-07-31T14:02:11;6.38;;;5.68;;
71806;SDS011;59655;42.590;23.364;2023-07-31T14:04:37;6.63;;;5.65;;
71806;SDS011;59655;42.590;23.364;2023-07-31T14:07:02;6.80;;;5.07;;
71806;SDS011;59655;42.590;23.364;2023-07-31T14:09:29;5.97;;;5.38;;
71806;SDS011;59655;42.590;23.364;2023-07-31T14:11:55;6.05;;;5.45;;
71806;SDS011;59655;42.590;23.364;2023-07-31T14:14:20;6.63;;;5.55;;
71806;SDS011;59655;42.590;23.364;2023-07-31T14:16:46;6.60;;;5.22;;
71806;SDS011;59655;42.590;23.364;2023-07-31T14:19:11;7.35;;;5.50;;
71806;SDS011;59655;42.590;23.364;2023-07-31T14:21:37;6.70;;;5.90;;
71806;SDS011;59655;42.590;23.364;2023-07-31T14:24:02;5.28;;;4.78;;
71806;SDS011;59655;42.590;23.364;2023-07-31T14:26:28;5.65;;;5.10;;
71806;SDS011;59655;42.590;23.364;2023-07-31T14:28:53;6.40;;;4.97;;
71806;SDS011;59655;42.590;23.364;2023-07-31T14:31:18;6.60;;;4.82;;
71806;SDS011;59655;42.590;23.364;2023-07-31T14:33:44;7.57;;;5.15;;
71806;SDS011;59655;42.590;23.364;2023-07-31T14:36:09;5.85;;;5.18;;
71806;SDS011;59655;42.590;23.364;2023-07-31T14:38:35;5.65;;;4.85;;
71806;SDS011;59655;42.590;23.364;2023-07-31T14:41:00;7.28;;;4.90;;
71806;SDS011;59655;42.590;23.364;2023-07-31T14:43:27;6.22;;;4.90;;
71806;SDS011;59655;42.590;23.364;2023-07-31T14:45:52;6.95;;;5.10;;
71806;SDS011;59655;42.590;23.364;2023-07-31T14:48:20;9.75;;;5.18;;
71806;SDS011;59655;42.590;23.364;2023-07-31T14:50:46;5.28;;;4.78;;
71806;SDS011;59655;42.590;23.364;2023-07-31T14:53:11;4.95;;;4.32;;
71806;SDS011;59655;42.590;23.364;2023-07-31T14:55:37;5.75;;;4.70;;
71806;SDS011;59655;42.590;23.364;2023-07-31T14:58:02;5.85;;;4.50;;
71806;SDS011;59655;42.590;23.364;2023-07-31T15:00:28;7.38;;;4.93;;